Report METAR

 

LIBG - Grottaglie(Civ/A, Italy
Distanza dalla stazione: NE 13km
Dati ricevuti: 18/07/2024 10:50
Sereno
Sereno
 Vento da NE
Vento: NE 17 km/h
Temperatura: 38°C
P.to Rugiada: 9°C
Umidità: 17%
Barometro: 1014 hPa
Riassunto: Sereno
Visibilità: superiore a 10 km
2024/07/18 08:50 LIBG 180850Z 04009KT 360V070 CAVOK 38/09 Q1014
LIBH - Marina Di Ginosa, Italy
Distanza dalla stazione: O 33km
Dati ricevuti: 18/07/2024 10:55
Sereno
Sereno
 Vento da N
Vento: N 17 km/h
Temperatura: 39°C
P.to Rugiada: 10°C
Umidità: 17%
Barometro: 1013 hPa
Riassunto: Sereno
Visibilità: superiore a 10 km
2024/07/18 08:55 LIBH 180855Z 01009KT CAVOK 39/10 Q1013 RMK SKC QUK 1 QUL 1 E VIS MAR 20 KM VIS MIN 9999
 
LIBV - Gioia Del Colle, Italy
Distanza dalla stazione: NO 45km
Dati ricevuti: 18/07/2024 10:55
Sereno
Sereno
 Vento da N
Vento: N 22 km/h
Temperatura: 35°C
P.to Rugiada: 8°C
Umidità: 19%
Barometro: 1017 hPa
Riassunto: Sereno
Visibilità: superiore a 10 km
2024/07/18 08:55 LIBV 180855Z 35012KT CAVOK 35/08 Q1017
LIBR - Brindisi/Casale, Italy
Distanza dalla stazione: ENE 62km
Dati ricevuti: 18/07/2024 11:50
Sereno
Sereno
 Vento da NNO
Vento: NNO 26 km/h
Temperatura: 32°C
Indice di Calore: 36°C
P.to Rugiada: 22°C
Umidità: 55%
Barometro: 1014 hPa
Riassunto: Sereno
Visibilità: superiore a 10 km
2024/07/18 09:50 LIBR 180950Z 33014KT CAVOK 32/22 Q1014
 
LIBN - Lecce (it-Afb), Italy
Distanza dalla stazione: ESE 79km
Dati ricevuti: 18/07/2024 10:55
Sereno
Sereno
 Vento da N
Vento: N 22 km/h
Temperatura: 36°C
Indice di Calore: 45°C
P.to Rugiada: 25°C
Umidità: 53%
Barometro: 1014 hPa
Riassunto: Sereno
Visibilità: superiore a 10 km
2024/07/18 08:55 LIBN 180855Z 36012KT CAVOK 36/25 Q1014 RMK SKC VIS MIN 9999 WIND THR14 36013KT WIND THR32 36013KT BLU
LIBD - Bari/Palese Macc, Italy
Distanza dalla stazione: NNO 85km
Dati ricevuti: 18/07/2024 11:50
Sereno
Sereno
 Vento da NNO
Vento: NNO 17 km/h
Temperatura: 34°C
P.to Rugiada: 15°C
Umidità: 32%
Barometro: 1015 hPa
Riassunto: Sereno
Visibilità: superiore a 10 km
2024/07/18 09:50 LIBD 180950Z 33009KT 300V360 CAVOK 34/15 Q1015